Time;durP1;ratioP1;P1;durP2;ratioP2;P2;SDS_P1;SDS_P2;PMS_P1;PMS_P2;Temp;Humidity;BMP_temperature;BMP_pressure;BME280_temperature;BME280_humidity;BME280_pressure;Samples;Min_cycle;Max_cycle;Signal;HPM_P1;HPM_P2
2021/12/06 00:02:06;;;;;;;62.65;38.00;;;4.60;99.90;;;;;;4771400;29;20486;-81
2021/12/06 00:04:38;;;;;;;45.70;30.35;;;4.60;99.90;;;;;;4805488;29;20395;-82
2021/12/06 00:07:09;;;;;;;48.92;32.83;;;4.60;99.90;;;;;;4761806;29;20070;-81
2021/12/06 00:09:38;;;;;;;45.53;30.80;;;4.60;99.90;;;;;;4789985;29;20151;-75
2021/12/06 00:12:05;;;;;;;47.67;29.90;;;4.60;99.90;;;;;;4772477;29;20054;-76
2021/12/06 00:14:35;;;;;;;43.03;29.75;;;4.60;99.90;;;;;;4802260;29;20541;-76
2021/12/06 00:17:10;;;;;;;48.50;30.23;;;4.60;99.90;;;;;;4802183;29;20035;-75
2021/12/06 00:19:38;;;;;;;48.67;32.10;;;4.60;99.90;;;;;;4785334;29;20038;-75
2021/12/06 00:22:09;;;;;;;52.35;29.67;;;4.60;99.90;;;;;;4786030;29;20057;-75
2021/12/06 00:24:36;;;;;;;47.10;30.58;;;4.60;99.90;;;;;;4785571;29;20043;-75
2021/12/06 00:27:03;;;;;;;57.63;35.40;;;4.60;99.90;;;;;;4786414;29;20671;-75
2021/12/06 00:29:30;;;;;;;58.42;35.53;;;4.60;99.90;;;;;;4802902;29;20503;-75
2021/12/06 00:31:57;;;;;;;59.13;36.15;;;4.60;99.90;;;;;;4784020;29;20495;-76
2021/12/06 00:34:25;;;;;;;52.75;31.90;;;4.60;99.90;;;;;;4785834;29;20058;-75
2021/12/06 00:36:53;;;;;;;46.45;29.90;;;4.60;99.90;;;;;;4784178;29;20043;-75
2021/12/06 00:39:22;;;;;;;53.00;33.10;;;4.60;99.90;;;;;;4758474;29;20043;-75
2021/12/06 00:41:49;;;;;;;56.58;34.17;;;4.60;99.90;;;;;;4797233;29;20035;-81
2021/12/06 00:44:15;;;;;;;54.95;32.97;;;4.60;99.90;;;;;;4756448;29;20438;-80
2021/12/06 00:46:42;;;;;;;68.68;36.33;;;4.60;99.90;;;;;;4787499;29;20043;-80
2021/12/06 00:49:10;;;;;;;54.35;32.75;;;4.60;99.90;;;;;;4776071;29;20038;-80
2021/12/06 00:51:37;;;;;;;52.92;31.80;;;4.60;99.90;;;;;;4806998;29;20038;-80
2021/12/06 00:54:04;;;;;;;50.33;29.90;;;4.60;99.90;;;;;;4786036;29;20051;-80
2021/12/06 00:56:31;;;;;;;53.42;32.08;;;4.60;99.90;;;;;;4786469;29;20495;-80
2021/12/06 00:58:58;;;;;;;56.45;34.13;;;4.60;99.90;;;;;;4774689;29;20039;-80
2021/12/06 01:01:24;;;;;;;55.05;31.85;;;4.60;99.90;;;;;;4772831;29;20054;-80
2021/12/06 01:03:51;;;;;;;57.37;33.07;;;4.60;99.90;;;;;;4793460;29;20046;-80
2021/12/06 01:06:17;;;;;;;57.97;32.47;;;4.60;99.90;;;;;;4784087;29;20047;-80
2021/12/06 01:08:44;;;;;;;50.13;30.67;;;4.60;99.90;;;;;;4771288;29;20061;-80
2021/12/06 01:11:11;;;;;;;56.47;33.72;;;4.60;99.90;;;;;;4799172;29;20050;-80
2021/12/06 01:13:38;;;;;;;52.88;31.67;;;4.60;99.90;;;;;;4808506;29;20058;-80
2021/12/06 01:16:07;;;;;;;52.15;30.60;;;4.70;99.90;;;;;;4796165;29;20503;-80
2021/12/06 01:18:35;;;;;;;69.47;35.60;;;4.60;99.90;;;;;;4796267;29;20053;-80
2021/12/06 01:21:17;;;;;;;60.78;33.65;;;4.70;99.90;;;;;;4806709;29;20039;-81
2021/12/06 01:24:00;;;;;;;53.78;32.85;;;4.70;99.90;;;;;;4784703;29;20044;-80
2021/12/06 01:32:13;;;;;;;55.33;27.67;;;4.70;99.90;;;;;;4772933;29;20063;-81
2021/12/06 01:40:08;;;;;;;59.53;30.83;;;4.70;99.90;;;;;;4759243;29;20046;-81
2021/12/06 01:42:35;;;;;;;65.13;32.88;;;4.70;99.90;;;;;;4772176;29;20046;-81
2021/12/06 01:45:03;;;;;;;71.45;35.92;;;4.70;99.90;;;;;;4800966;29;20046;-80
2021/12/06 01:47:37;;;;;;;66.57;36.58;;;4.70;99.90;;;;;;4805922;29;20414;-80
2021/12/06 01:50:21;;;;;;;76.32;36.97;;;4.70;99.90;;;;;;4798952;29;20582;-81
2021/12/06 01:52:52;;;;;;;69.57;35.90;;;4.70;99.90;;;;;;4788221;29;20058;-81
2021/12/06 01:55:23;;;;;;;70.17;34.20;;;4.70;99.90;;;;;;4771112;29;20578;-76
2021/12/06 01:57:50;;;;;;;67.90;33.88;;;4.70;99.90;;;;;;4777553;29;20054;-76
2021/12/06 02:00:30;;;;;;;62.95;31.40;;;4.70;99.90;;;;;;4755103;29;20047;-76
2021/12/06 02:03:01;;;;;;;67.15;34.10;;;4.80;99.90;;;;;;4783811;29;20043;-76
2021/12/06 02:05:38;;;;;;;61.53;32.08;;;4.80;99.90;;;;;;4772498;29;20049;-76
2021/12/06 02:08:08;;;;;;;66.75;33.53;;;4.80;99.90;;;;;;4796983;29;20039;-76
2021/12/06 02:10:38;;;;;;;72.63;34.37;;;4.80;99.90;;;;;;4756592;29;20055;-80
2021/12/06 02:13:09;;;;;;;75.05;37.28;;;4.80;99.90;;;;;;4787410;29;20039;-80
2021/12/06 02:15:51;;;;;;;79.45;38.53;;;4.90;99.90;;;;;;4775838;29;20038;-81
2021/12/06 02:21:31;;;;;;;61.30;30.80;;;4.80;99.90;;;;;;4791031;29;20050;-76
2021/12/06 02:24:01;;;;;;;66.78;32.40;;;4.90;99.90;;;;;;4798184;29;20777;-76
2021/12/06 02:26:28;;;;;;;71.97;34.53;;;4.90;99.90;;;;;;4799640;29;20043;-76
2021/12/06 02:28:55;;;;;;;63.53;32.50;;;4.90;99.90;;;;;;4790454;29;20050;-76
2021/12/06 02:31:25;;;;;;;69.90;35.50;;;4.90;99.90;;;;;;4788974;29;20046;-76
2021/12/06 02:33:53;;;;;;;74.22;35.50;;;4.90;99.90;;;;;;4800760;29;20043;-76
2021/12/06 02:36:23;;;;;;;82.55;36.17;;;4.90;99.90;;;;;;4783039;29;20054;-76
2021/12/06 02:38:49;;;;;;;82.03;37.95;;;4.90;99.90;;;;;;4786238;29;20040;-76
2021/12/06 02:41:18;;;;;;;76.88;38.70;;;4.90;99.90;;;;;;4787979;29;20039;-76
2021/12/06 02:43:47;;;;;;;76.97;38.05;;;4.90;99.90;;;;;;4779798;29;20054;-76
2021/12/06 02:46:16;;;;;;;68.80;35.03;;;4.90;99.90;;;;;;4774687;29;20049;-76
2021/12/06 02:48:42;;;;;;;76.00;36.95;;;4.90;99.90;;;;;;4779879;29;20586;-76
2021/12/06 02:51:10;;;;;;;78.32;36.20;;;4.80;99.90;;;;;;4783821;29;20141;-76
2021/12/06 02:53:37;;;;;;;77.03;35.53;;;4.80;99.90;;;;;;4787474;29;20135;-76
2021/12/06 02:56:17;;;;;;;68.90;32.33;;;4.80;99.90;;;;;;4787526;29;20412;-76
2021/12/06 02:58:58;;;;;;;65.45;31.90;;;4.80;99.90;;;;;;4787574;29;20042;-76
2021/12/06 03:01:31;;;;;;;65.60;31.50;;;4.80;99.90;;;;;;4788358;29;20042;-82
2021/12/06 03:03:59;;;;;;;61.77;29.30;;;4.80;99.90;;;;;;4787806;29;20057;-81
2021/12/06 03:06:27;;;;;;;65.95;32.13;;;4.80;99.90;;;;;;4775131;29;20499;-82
2021/12/06 03:09:04;;;;;;;70.40;33.60;;;4.80;99.90;;;;;;4769469;29;20053;-82
2021/12/06 03:11:44;;;;;;;75.13;36.78;;;4.80;99.90;;;;;;4782861;29;20043;-82
2021/12/06 03:14:18;;;;;;;91.22;39.95;;;4.80;99.90;;;;;;4801629;29;20050;-81
2021/12/06 03:16:47;;;;;;;85.97;40.00;;;4.80;99.90;;;;;;4792151;29;20050;-81
2021/12/06 03:19:14;;;;;;;85.57;39.95;;;4.70;99.90;;;;;;4780229;29;20034;-82
2021/12/06 03:21:41;;;;;;;76.03;35.85;;;4.70;99.90;;;;;;4806929;29;20038;-81
2021/12/06 03:24:11;;;;;;;75.43;32.95;;;4.70;99.90;;;;;;4755560;29;20047;-81
2021/12/06 03:26:39;;;;;;;72.40;31.90;;;4.70;99.90;;;;;;4800388;29;20050;-82
2021/12/06 03:29:06;;;;;;;65.50;31.70;;;4.70;99.90;;;;;;4787004;29;20053;-82
2021/12/06 03:31:34;;;;;;;73.75;32.75;;;4.70;99.90;;;;;;4755185;29;20411;-81
2021/12/06 03:34:05;;;;;;;64.70;31.90;;;4.70;99.90;;;;;;4771275;29;20578;-81
2021/12/06 03:36:35;;;;;;;71.00;32.05;;;4.80;99.90;;;;;;4801998;29;20403;-81
2021/12/06 03:39:05;;;;;;;62.97;30.70;;;4.80;99.90;;;;;;4759177;29;20050;-81
2021/12/06 03:41:33;;;;;;;72.22;32.40;;;4.70;99.90;;;;;;4807876;29;20510;-82
2021/12/06 03:44:00;;;;;;;65.05;31.55;;;4.70;99.90;;;;;;4774318;29;20038;-81
2021/12/06 03:46:29;;;;;;;68.35;31.17;;;4.80;99.90;;;;;;4783744;29;20415;-81
2021/12/06 03:48:57;;;;;;;64.30;29.95;;;4.80;99.90;;;;;;4769793;29;20042;-82
2021/12/06 03:51:24;;;;;;;66.55;29.90;;;4.80;99.90;;;;;;4767309;29;20054;-81
2021/12/06 03:53:53;;;;;;;63.45;28.77;;;4.80;99.90;;;;;;4792607;29;20069;-81
2021/12/06 03:56:20;;;;;;;62.22;27.55;;;4.80;99.90;;;;;;4779497;29;20051;-81
2021/12/06 03:58:47;;;;;;;62.75;29.27;;;4.80;99.90;;;;;;4768330;29;20043;-81
2021/12/06 04:01:14;;;;;;;65.20;30.25;;;4.80;99.90;;;;;;4803052;29;20038;-81
2021/12/06 04:03:42;;;;;;;60.03;30.23;;;4.80;99.90;;;;;;4787988;29;20034;-81
2021/12/06 04:06:11;;;;;;;61.15;29.10;;;4.80;99.90;;;;;;4770690;29;20050;-81
2021/12/06 04:08:38;;;;;;;65.05;29.80;;;4.80;99.90;;;;;;4803467;29;20530;-81
2021/12/06 04:11:06;;;;;;;69.55;31.40;;;4.80;99.90;;;;;;4791468;29;20503;-82
2021/12/06 04:13:35;;;;;;;65.75;30.17;;;4.80;99.90;;;;;;4759171;29;20062;-81
2021/12/06 04:16:03;;;;;;;67.32;29.80;;;4.80;99.90;;;;;;4792273;29;20070;-81
2021/12/06 04:18:31;;;;;;;67.65;30.05;;;4.80;99.90;;;;;;4769341;29;20043;-81
2021/12/06 04:20:58;;;;;;;69.85;31.73;;;4.80;99.90;;;;;;4782658;29;20046;-81
2021/12/06 04:23:26;;;;;;;75.15;34.53;;;4.80;99.90;;;;;;4818382;29;20042;-81
2021/12/06 04:25:53;;;;;;;87.03;37.08;;;4.80;99.90;;;;;;4771521;29;20050;-81
2021/12/06 04:28:23;;;;;;;74.80;35.60;;;4.80;99.90;;;;;;4788735;29;20061;-81
2021/12/06 04:30:51;;;;;;;78.03;33.78;;;4.70;99.90;;;;;;4784792;29;20404;-81
2021/12/06 04:33:19;;;;;;;73.80;32.58;;;4.70;99.90;;;;;;4787939;29;20130;-81
2021/12/06 04:35:47;;;;;;;71.25;31.98;;;4.70;99.90;;;;;;4797885;29;20053;-80
2021/12/06 04:38:15;;;;;;;72.50;32.00;;;4.70;99.90;;;;;;4811838;29;20506;-81
2021/12/06 04:40:44;;;;;;;74.20;31.30;;;4.70;99.90;;;;;;4779965;29;20051;-81
2021/12/06 04:43:11;;;;;;;73.82;33.60;;;4.70;99.90;;;;;;4775420;29;20488;-81
2021/12/06 04:45:38;;;;;;;84.35;35.03;;;4.70;99.90;;;;;;4786975;29;20047;-81
2021/12/06 04:48:08;;;;;;;87.00;39.90;;;4.70;99.90;;;;;;4791730;29;20050;-81
2021/12/06 04:50:37;;;;;;;83.20;35.67;;;4.70;99.90;;;;;;4801917;29;20054;-81
2021/12/06 04:53:14;;;;;;;93.50;40.08;;;4.60;99.90;;;;;;4775557;29;20055;-81
2021/12/06 04:55:59;;;;;;;82.13;34.75;;;4.60;99.90;;;;;;4799486;29;20050;-81
2021/12/06 04:58:36;;;;;;;77.05;33.05;;;4.60;99.90;;;;;;4790206;29;20054;-81
2021/12/06 05:01:10;;;;;;;84.10;37.10;;;4.60;99.90;;;;;;4785476;29;20046;-81
2021/12/06 05:03:40;;;;;;;93.07;40.55;;;4.50;99.90;;;;;;4776787;29;20042;-81
2021/12/06 05:06:19;;;;;;;82.88;36.30;;;4.50;99.90;;;;;;4794847;29;20416;-81
2021/12/06 05:08:49;;;;;;;85.35;37.33;;;4.40;99.90;;;;;;4788144;29;20043;-76
2021/12/06 05:11:20;;;;;;;100.35;42.10;;;4.40;99.90;;;;;;4796780;29;20043;-76
2021/12/06 05:13:48;;;;;;;90.32;40.20;;;4.40;99.90;;;;;;4800016;29;20049;-75
2021/12/06 05:16:17;;;;;;;79.93;35.20;;;4.30;99.90;;;;;;4798839;29;20058;-75
2021/12/06 05:18:44;;;;;;;73.45;32.60;;;4.30;99.90;;;;;;4781441;29;20051;-75
2021/12/06 05:21:11;;;;;;;67.60;30.42;;;4.30;99.90;;;;;;4787665;29;20035;-80
2021/12/06 05:23:38;;;;;;;73.60;31.88;;;4.20;99.90;;;;;;4787843;29;20404;-75
2021/12/06 05:26:05;;;;;;;78.18;33.85;;;4.20;99.90;;;;;;4769346;29;20059;-75
2021/12/06 05:28:38;;;;;;;74.97;35.13;;;4.10;99.90;;;;;;4779856;29;20050;-76
2021/12/06 05:31:13;;;;;;;86.90;38.03;;;4.10;99.90;;;;;;4754528;29;20046;-76
2021/12/06 05:33:47;;;;;;;81.00;34.38;;;4.00;99.90;;;;;;4801287;29;20050;-76
2021/12/06 05:36:14;;;;;;;86.75;37.38;;;3.90;99.90;;;;;;4801360;29;20050;-76
2021/12/06 05:38:42;;;;;;;86.15;38.13;;;3.90;99.90;;;;;;4769535;29;20566;-76
2021/12/06 05:41:08;;;;;;;83.40;33.93;;;3.80;99.90;;;;;;4765299;29;20050;-76
2021/12/06 05:43:35;;;;;;;87.80;35.72;;;3.80;99.90;;;;;;4785370;29;20042;-76
2021/12/06 05:46:03;;;;;;;80.18;35.17;;;3.80;99.90;;;;;;4784897;29;20043;-76
2021/12/06 05:48:29;;;;;;;76.30;32.63;;;3.80;99.90;;;;;;4799321;29;20506;-77
2021/12/06 05:50:56;;;;;;;76.00;34.25;;;3.80;99.90;;;;;;4776323;29;20041;-81
2021/12/06 05:53:23;;;;;;;77.40;32.10;;;3.80;99.90;;;;;;4786814;29;20054;-81
2021/12/06 05:55:50;;;;;;;81.20;31.77;;;3.80;99.90;;;;;;4801594;29;20046;-81
2021/12/06 05:58:19;;;;;;;84.53;37.63;;;3.90;99.90;;;;;;4797441;29;20038;-81
2021/12/06 06:00:46;;;;;;;82.93;35.20;;;3.90;99.90;;;;;;4782544;29;20051;-83
2021/12/06 06:03:13;;;;;;;85.25;35.83;;;3.90;99.90;;;;;;4765902;29;20031;-83
2021/12/06 06:05:40;;;;;;;75.85;34.80;;;3.90;99.90;;;;;;4754615;29;20050;-79
2021/12/06 06:08:07;;;;;;;85.25;36.70;;;3.90;99.90;;;;;;4783651;29;20055;-75
2021/12/06 06:10:34;;;;;;;93.57;40.28;;;3.90;99.90;;;;;;4769962;29;20038;-80
2021/12/06 06:13:04;;;;;;;104.88;41.50;;;3.90;99.90;;;;;;4778317;29;20050;-76
2021/12/06 06:15:31;;;;;;;89.80;38.97;;;3.90;99.90;;;;;;4782552;29;20043;-77
2021/12/06 06:17:58;;;;;;;110.03;43.13;;;3.90;99.90;;;;;;4789166;29;20041;-83
2021/12/06 06:20:41;;;;;;;101.82;44.42;;;4.00;99.90;;;;;;4786106;29;20411;-82
2021/12/06 06:23:08;;;;;;;109.85;43.90;;;4.00;99.90;;;;;;4801496;29;20042;-76
2021/12/06 06:25:35;;;;;;;120.20;48.20;;;4.00;99.90;;;;;;4764447;29;20038;-82
2021/12/06 06:28:03;;;;;;;108.75;43.58;;;4.10;99.90;;;;;;4803827;29;20043;-76
2021/12/06 06:30:29;;;;;;;109.05;45.60;;;4.20;99.90;;;;;;4772472;29;20050;-82
2021/12/06 06:32:56;;;;;;;108.30;43.38;;;4.20;99.90;;;;;;4760951;29;20049;-76
2021/12/06 06:35:24;;;;;;;105.55;46.45;;;4.20;99.90;;;;;;4762506;29;20043;-77
2021/12/06 06:37:51;;;;;;;103.88;45.55;;;4.30;99.90;;;;;;4769735;29;20050;-81
2021/12/06 06:40:18;;;;;;;105.50;45.05;;;4.20;99.90;;;;;;4788969;29;20439;-76
2021/12/06 06:42:45;;;;;;;101.38;45.25;;;4.30;99.90;;;;;;4784515;29;20492;-76
2021/12/06 06:45:15;;;;;;;91.05;41.30;;;4.30;99.90;;;;;;4767271;29;20035;-83
2021/12/06 06:47:42;;;;;;;90.53;40.30;;;4.30;99.90;;;;;;4773014;29;20398;-77
2021/12/06 06:50:10;;;;;;;87.97;37.53;;;4.30;99.90;;;;;;4789258;29;20148;-83
2021/12/06 06:52:37;;;;;;;83.40;36.33;;;4.30;99.90;;;;;;4807826;29;20062;-82
2021/12/06 06:55:05;;;;;;;79.28;37.53;;;4.30;99.90;;;;;;4812465;29;20050;-83
2021/12/06 06:57:32;;;;;;;88.32;41.05;;;4.30;99.90;;;;;;4781219;29;20045;-83
2021/12/06 06:59:59;;;;;;;92.57;42.27;;;4.30;99.90;;;;;;4785634;29;20036;-83
2021/12/06 07:02:25;;;;;;;95.25;41.95;;;4.40;99.90;;;;;;4778328;29;20035;-76
2021/12/06 07:04:52;;;;;;;131.52;50.20;;;4.30;99.90;;;;;;4786240;29;20043;-76
2021/12/06 07:07:18;;;;;;;110.60;48.63;;;4.30;99.90;;;;;;4803037;29;20046;-77
2021/12/06 07:09:45;;;;;;;98.63;42.03;;;4.30;99.90;;;;;;4775345;29;20046;-76
2021/12/06 07:12:17;;;;;;;109.93;47.03;;;4.30;99.90;;;;;;4777599;29;20483;-76
2021/12/06 07:14:46;;;;;;;96.63;45.28;;;4.30;99.90;;;;;;4780495;29;20046;-76
2021/12/06 07:17:13;;;;;;;100.97;45.55;;;4.30;99.90;;;;;;4787847;29;20043;-85
2021/12/06 07:19:40;;;;;;;88.75;43.13;;;4.20;99.90;;;;;;4775647;29;20094;-84
2021/12/06 07:22:06;;;;;;;87.70;40.70;;;4.20;99.90;;;;;;4760477;29;20047;-84
2021/12/06 07:24:33;;;;;;;83.20;40.15;;;4.20;99.90;;;;;;4790843;29;20403;-84
2021/12/06 07:26:59;;;;;;;80.97;39.33;;;4.20;99.90;;;;;;4773499;29;20056;-84
2021/12/06 07:29:26;;;;;;;93.47;41.28;;;4.20;99.90;;;;;;4785481;29;20498;-84
2021/12/06 07:31:53;;;;;;;102.82;43.70;;;4.20;99.90;;;;;;4785646;29;20038;-79
2021/12/06 07:34:20;;;;;;;84.35;39.85;;;4.20;99.90;;;;;;4803465;29;20051;-81
2021/12/06 07:36:47;;;;;;;107.70;47.00;;;4.20;99.90;;;;;;4796867;29;20046;-82
2021/12/06 07:39:13;;;;;;;89.03;40.88;;;4.20;99.90;;;;;;4783570;29;20045;-80
2021/12/06 07:41:40;;;;;;;80.43;40.83;;;4.20;99.90;;;;;;4776047;29;20063;-81
2021/12/06 07:44:06;;;;;;;83.68;37.65;;;4.20;99.90;;;;;;4812582;29;20497;-83
2021/12/06 07:46:33;;;;;;;79.35;36.45;;;4.20;99.90;;;;;;4812849;29;20046;-82
2021/12/06 07:49:00;;;;;;;81.53;39.60;;;4.20;99.90;;;;;;4781384;29;20038;-82
2021/12/06 07:51:28;;;;;;;82.28;40.25;;;4.20;99.90;;;;;;4781755;29;20051;-83
2021/12/06 07:53:56;;;;;;;115.20;48.60;;;4.20;99.90;;;;;;4798389;29;20502;-82
2021/12/06 07:56:25;;;;;;;106.82;50.70;;;4.20;99.90;;;;;;4813144;29;20050;-83
2021/12/06 07:58:52;;;;;;;79.93;40.97;;;4.20;99.90;;;;;;4810625;29;20037;-82
2021/12/06 08:01:20;;;;;;;107.93;48.05;;;4.10;99.90;;;;;;4811237;29;20480;-82
2021/12/06 08:03:46;;;;;;;77.22;41.90;;;4.10;99.90;;;;;;4802638;29;20057;-82
2021/12/06 08:06:13;;;;;;;72.50;39.72;;;4.10;99.90;;;;;;4816780;29;20061;-82
2021/12/06 08:08:40;;;;;;;114.55;48.72;;;4.10;99.90;;;;;;4762374;29;20061;-80
2021/12/06 08:11:14;;;;;;;89.93;44.30;;;4.00;99.90;;;;;;4791419;29;20081;-82
2021/12/06 08:13:44;;;;;;;73.97;37.78;;;4.00;99.90;;;;;;4799466;29;20376;-82
2021/12/06 08:16:16;;;;;;;100.72;43.78;;;4.00;99.90;;;;;;4788017;29;20039;-82
2021/12/06 08:18:44;;;;;;;101.65;46.15;;;4.00;99.90;;;;;;4788052;29;20488;-82
2021/12/06 08:21:13;;;;;;;73.45;37.20;;;3.90;99.90;;;;;;4788167;29;20519;-82
2021/12/06 08:23:40;;;;;;;71.45;34.88;;;4.00;99.90;;;;;;4794361;29;20034;-82
2021/12/06 08:26:08;;;;;;;77.63;38.97;;;4.00;99.90;;;;;;4768419;29;20118;-82
2021/12/06 08:28:36;;;;;;;113.00;48.55;;;4.00;99.90;;;;;;4776028;29;20377;-82
2021/12/06 08:31:05;;;;;;;80.88;41.47;;;4.00;99.90;;;;;;4800966;29;20488;-81
2021/12/06 08:33:33;;;;;;;120.28;47.90;;;4.00;99.90;;;;;;4770494;29;20039;-82
2021/12/06 08:36:00;;;;;;;106.13;46.27;;;4.00;99.90;;;;;;4803426;29;20503;-81
2021/12/06 08:38:28;;;;;;;165.20;52.63;;;3.90;99.90;;;;;;4805648;29;20030;-83
2021/12/06 08:40:57;;;;;;;82.25;40.13;;;3.90;99.90;;;;;;4771535;29;20034;-82
2021/12/06 08:43:24;;;;;;;96.73;43.07;;;3.90;99.90;;;;;;4800455;29;20046;-82
2021/12/06 08:46:10;;;;;;;77.50;35.97;;;3.90;99.90;;;;;;4785559;29;20031;-82
2021/12/06 08:48:40;;;;;;;74.63;37.78;;;3.90;99.90;;;;;;4805285;29;20075;-81
2021/12/06 08:51:14;;;;;;;131.68;47.20;;;3.90;99.90;;;;;;4800256;29;20557;-81
2021/12/06 08:53:42;;;;;;;82.73;38.57;;;3.90;99.90;;;;;;4780832;29;20046;-81
2021/12/06 08:56:09;;;;;;;75.70;37.05;;;3.90;99.90;;;;;;4787580;29;20430;-82
2021/12/06 08:58:36;;;;;;;72.53;37.97;;;3.90;99.90;;;;;;4791499;29;20042;-81
2021/12/06 09:01:04;;;;;;;65.60;33.97;;;3.90;99.90;;;;;;4803219;29;20055;-81
2021/12/06 09:03:30;;;;;;;101.85;42.55;;;3.90;99.90;;;;;;4772647;29;20039;-81
2021/12/06 09:05:57;;;;;;;59.95;33.28;;;4.00;99.90;;;;;;4775659;29;20058;-81
2021/12/06 09:08:24;;;;;;;64.20;34.50;;;4.00;99.90;;;;;;4773363;29;20042;-81
2021/12/06 09:10:53;;;;;;;60.85;32.55;;;4.00;99.90;;;;;;4799795;29;20034;-81
2021/12/06 09:13:22;;;;;;;111.68;42.35;;;4.00;99.90;;;;;;4804899;29;20043;-81
2021/12/06 09:15:51;;;;;;;73.07;37.75;;;4.10;99.90;;;;;;4787737;29;20043;-81
2021/12/06 09:18:19;;;;;;;68.90;36.60;;;4.10;99.90;;;;;;4806252;29;20430;-81
2021/12/06 09:20:48;;;;;;;65.10;37.87;;;4.00;99.90;;;;;;4790747;29;20036;-82
2021/12/06 09:23:15;;;;;;;88.68;44.72;;;4.00;99.90;;;;;;4787067;29;20492;-80
2021/12/06 09:25:43;;;;;;;102.60;53.83;;;4.10;99.90;;;;;;4792986;29;20050;-81
2021/12/06 09:28:12;;;;;;;75.90;43.33;;;4.00;99.90;;;;;;4800735;29;20039;-80
2021/12/06 09:30:39;;;;;;;103.72;47.38;;;4.00;99.90;;;;;;4806382;29;20051;-81
2021/12/06 09:33:08;;;;;;;88.07;41.47;;;4.00;99.90;;;;;;4795828;29;20043;-81
2021/12/06 09:35:39;;;;;;;81.15;39.80;;;4.00;99.90;;;;;;4803092;29;20133;-81
2021/12/06 09:38:06;;;;;;;76.45;38.33;;;4.00;99.90;;;;;;4824957;29;20045;-82
2021/12/06 09:40:36;;;;;;;76.03;37.60;;;4.00;99.90;;;;;;4808795;29;20038;-82
2021/12/06 09:43:06;;;;;;;61.60;34.13;;;4.00;99.90;;;;;;4809807;29;20035;-81
2021/12/06 09:45:33;;;;;;;64.97;33.13;;;4.00;99.90;;;;;;4804048;29;20031;-82
2021/12/06 09:48:03;;;;;;;104.47;39.88;;;4.00;99.90;;;;;;4784738;29;20046;-82
2021/12/06 09:50:35;;;;;;;61.65;34.90;;;4.00;99.90;;;;;;4802981;29;20482;-82
2021/12/06 09:53:03;;;;;;;;;;;4.00;99.90;;;;;;4794137;29;20042;-82
2021/12/06 09:55:32;;;;;;;69.53;36.90;;;4.00;99.90;;;;;;4788040;29;19928;-82
2021/12/06 09:57:59;;;;;;;66.30;35.00;;;4.00;99.90;;;;;;4782355;29;20051;-82
2021/12/06 10:00:32;;;;;;;62.35;34.83;;;4.10;99.90;;;;;;4769172;29;20051;-76
2021/12/06 10:02:58;;;;;;;73.90;38.28;;;4.10;99.90;;;;;;4800187;29;20377;-76
2021/12/06 10:05:29;;;;;;;107.80;43.50;;;4.10;99.90;;;;;;4790119;29;20499;-76
2021/12/06 10:07:58;;;;;;;76.18;38.97;;;4.10;99.90;;;;;;4803268;29;20434;-76
2021/12/06 10:10:26;;;;;;;104.53;40.63;;;4.20;99.90;;;;;;4786243;29;20046;-77
2021/12/06 10:12:54;;;;;;;73.03;37.40;;;4.10;99.90;;;;;;4802251;29;20047;-76
2021/12/06 10:15:25;;;;;;;93.47;42.67;;;4.20;99.90;;;;;;4782847;29;20047;-76
2021/12/06 10:17:53;;;;;;;101.63;43.35;;;4.10;99.90;;;;;;4788246;29;20393;-75
2021/12/06 10:20:21;;;;;;;73.25;39.05;;;4.10;99.90;;;;;;4788508;29;20043;-76
2021/12/06 10:22:50;;;;;;;82.68;40.70;;;4.10;99.90;;;;;;4780329;29;20043;-76
2021/12/06 10:25:18;;;;;;;69.50;37.42;;;4.10;99.90;;;;;;4796938;29;20408;-76
2021/12/06 10:27:56;;;;;;;81.45;37.22;;;4.10;99.90;;;;;;4799364;29;20554;-76
2021/12/06 10:30:23;;;;;;;64.43;35.22;;;4.10;99.90;;;;;;4804160;29;20066;-76
2021/12/06 10:33:01;;;;;;;102.18;42.30;;;4.10;99.90;;;;;;4801653;29;20038;-76
2021/12/06 10:35:28;;;;;;;76.88;37.05;;;4.20;99.90;;;;;;4805646;29;20050;-76
2021/12/06 10:37:58;;;;;;;69.32;37.28;;;4.20;99.90;;;;;;4774590;29;20051;-76
2021/12/06 10:40:34;;;;;;;106.93;43.55;;;4.20;99.90;;;;;;4804007;29;20462;-76
2021/12/06 10:43:04;;;;;;;67.00;39.03;;;4.20;99.90;;;;;;4802184;29;20498;-76
2021/12/06 10:45:47;;;;;;;63.30;34.40;;;4.20;99.90;;;;;;4778384;29;21347;-77
2021/12/06 10:48:18;;;;;;;70.85;35.42;;;4.30;99.90;;;;;;4782557;29;20054;-76
2021/12/06 10:50:50;;;;;;;75.95;33.90;;;4.30;99.90;;;;;;4799149;29;20075;-76
2021/12/06 10:53:21;;;;;;;72.43;35.92;;;4.30;99.90;;;;;;4788356;29;20042;-76
2021/12/06 10:55:51;;;;;;;89.03;37.83;;;4.30;99.90;;;;;;4790560;29;20057;-76
2021/12/06 10:58:20;;;;;;;67.00;32.83;;;4.40;99.90;;;;;;4805159;29;20497;-76
2021/12/06 11:01:07;;;;;;;71.65;38.10;;;4.40;99.90;;;;;;4804983;29;20395;-76
2021/12/06 11:03:35;;;;;;;69.60;33.65;;;4.40;99.90;;;;;;4786098;29;20034;-76
2021/12/06 11:06:08;;;;;;;78.80;37.47;;;4.50;99.90;;;;;;4806950;29;20039;-76
2021/12/06 11:08:36;;;;;;;77.38;37.38;;;4.50;99.90;;;;;;4788488;29;20047;-76
2021/12/06 11:11:11;;;;;;;77.57;39.78;;;4.50;99.90;;;;;;4787523;29;20047;-76
2021/12/06 11:13:40;;;;;;;73.88;38.30;;;4.60;99.90;;;;;;4803517;29;20046;-76
2021/12/06 11:16:15;;;;;;;76.00;39.05;;;4.60;99.90;;;;;;4786420;29;20043;-76
2021/12/06 11:18:45;;;;;;;66.15;36.25;;;4.60;99.90;;;;;;4805254;29;20070;-76
2021/12/06 11:21:43;;;;;;;73.95;40.28;;;4.70;99.90;;;;;;4802816;29;20046;-75
2021/12/06 11:24:39;;;;;;;70.50;36.92;;;4.70;99.90;;;;;;4782307;29;20038;-75
2021/12/06 11:27:19;;;;;;;80.85;41.63;;;4.70;99.90;;;;;;4772659;29;20046;-75
2021/12/06 11:29:49;;;;;;;64.72;38.47;;;4.70;99.90;;;;;;4803662;29;20042;-75
2021/12/06 11:32:26;;;;;;;76.55;44.67;;;4.70;99.90;;;;;;4780653;29;20695;-75
2021/12/06 11:34:57;;;;;;;59.58;35.85;;;4.60;99.90;;;;;;4785158;29;20049;-76
2021/12/06 11:37:29;;;;;;;56.75;35.28;;;4.70;99.90;;;;;;4785871;29;20054;-75
2021/12/06 11:40:12;;;;;;;49.38;29.30;;;4.70;99.90;;;;;;4785775;29;20043;-76
2021/12/06 11:43:00;;;;;;;71.70;41.00;;;4.70;99.90;;;;;;4801970;29;20031;-75
2021/12/06 11:45:36;;;;;;;60.10;36.47;;;4.70;99.90;;;;;;4797501;29;20039;-76
2021/12/06 11:48:09;;;;;;;64.28;37.75;;;4.70;99.90;;;;;;4750097;29;20062;-77
2021/12/06 11:50:41;;;;;;;65.20;35.97;;;4.70;99.90;;;;;;4780701;29;20027;-76
2021/12/06 11:53:08;;;;;;;57.72;31.90;;;4.70;99.90;;;;;;4798610;29;20433;-78
2021/12/06 11:55:42;;;;;;;77.28;41.28;;;4.80;99.90;;;;;;4771017;29;20066;-78
2021/12/06 11:58:22;;;;;;;68.57;37.13;;;4.80;99.90;;;;;;4802025;29;20050;-78
2021/12/06 12:01:21;;;;;;;61.53;35.22;;;4.80;99.90;;;;;;4796564;29;20036;-77
2021/12/06 12:03:51;;;;;;;67.07;35.97;;;4.80;99.90;;;;;;4769518;29;20344;-75
2021/12/06 12:06:38;;;;;;;74.40;39.33;;;4.80;99.90;;;;;;4802690;29;20039;-74
2021/12/06 12:09:14;;;;;;;62.78;35.53;;;4.70;99.90;;;;;;4802576;29;20035;-76
2021/12/06 12:12:08;;;;;;;63.03;33.80;;;4.70;99.90;;;;;;4779742;29;20030;-77
2021/12/06 12:14:49;;;;;;;59.47;32.47;;;4.60;99.90;;;;;;4770495;29;20051;-77
2021/12/06 12:17:26;;;;;;;63.22;32.60;;;4.60;99.90;;;;;;4802317;29;20066;-80
2021/12/06 12:19:55;;;;;;;59.47;30.63;;;4.60;99.90;;;;;;4801370;29;20035;-78
2021/12/06 12:22:24;;;;;;;65.68;32.88;;;4.60;99.90;;;;;;4773799;29;20496;-83
2021/12/06 12:24:57;;;;;;;71.53;34.10;;;4.60;99.90;;;;;;4776561;29;20043;-82
2021/12/06 12:27:42;;;;;;;70.55;34.20;;;4.60;99.90;;;;;;4802811;29;20042;-82
2021/12/06 12:30:09;;;;;;;70.32;31.70;;;4.50;99.90;;;;;;4800341;29;20046;-82
2021/12/06 12:32:36;;;;;;;55.95;28.88;;;4.60;99.90;;;;;;4786147;29;20407;-82
2021/12/06 12:35:09;;;;;;;57.42;28.77;;;4.60;99.90;;;;;;4796627;29;20047;-84
2021/12/06 12:37:38;;;;;;;62.65;28.83;;;4.60;99.90;;;;;;4769656;29;20922;-83
2021/12/06 12:40:13;;;;;;;56.42;29.52;;;4.60;99.90;;;;;;4769535;29;20032;-82
2021/12/06 12:42:59;;;;;;;56.45;29.73;;;4.60;99.90;;;;;;4785864;29;20498;-84
2021/12/06 12:45:38;;;;;;;51.28;28.88;;;4.60;99.90;;;;;;4780732;29;20043;-85
2021/12/06 12:48:05;;;;;;;48.03;28.05;;;4.60;99.90;;;;;;4783362;29;20054;-84
2021/12/06 12:50:33;;;;;;;48.67;26.67;;;4.60;99.90;;;;;;4778377;29;20143;-84
2021/12/06 12:53:15;;;;;;;46.30;26.75;;;4.60;99.90;;;;;;4779740;29;20043;-81
2021/12/06 12:55:49;;;;;;;38.53;21.45;;;4.60;99.90;;;;;;4788000;29;20064;-83
2021/12/06 12:58:23;;;;;;;42.92;24.02;;;4.60;99.90;;;;;;4788479;29;20047;-82
2021/12/06 13:00:51;;;;;;;50.50;27.88;;;4.60;99.90;;;;;;4789112;29;20043;-82
2021/12/06 13:03:38;;;;;;;42.33;25.23;;;4.60;99.90;;;;;;4777860;29;20051;-82
2021/12/06 13:06:20;;;;;;;42.63;23.52;;;4.60;99.90;;;;;;4779240;29;20127;-83